Time;durP1;ratioP1;P1;durP2;ratioP2;P2;SDS_P1;SDS_P2;PMS_P1;PMS_P2;Temp;Humidity;BMP_temperature;BMP_pressure;BME280_temperature;BME280_humidity;BME280_pressure;Samples;Min_cycle;Max_cycle;Signal;HPM_P1;HPM_P2
2022/02/12 00:00:51;;;;;;;34.80;16.20;;;;;;;15.50;59.19;101129.91;5022821;28;20095;-75
2022/02/12 00:03:18;;;;;;;35.90;14.63;;;;;;;15.28;59.08;101089.06;5013403;28;20053;-73
2022/02/12 00:05:45;;;;;;;37.07;18.23;;;;;;;15.57;58.98;101136.84;5026417;28;20077;-78
2022/02/12 00:08:11;;;;;;;26.27;13.13;;;;;;;15.61;59.02;101148.34;5027777;28;20145;-78
2022/02/12 00:10:38;;;;;;;30.87;14.27;;;;;;;15.62;59.08;101145.25;5037298;28;20037;-75
2022/02/12 00:13:12;;;;;;;25.87;11.37;;;;;;;15.33;58.97;101097.44;5043483;28;20046;-76
2022/02/12 00:15:39;;;;;;;40.73;12.03;;;;;;;15.44;59.07;101134.75;5044782;28;20140;-78
2022/02/12 00:18:06;;;;;;;34.13;12.57;;;;;;;15.38;59.12;101128.34;5035329;28;20049;-79
2022/02/12 00:20:34;;;;;;;25.00;12.33;;;;;;;15.44;59.18;101142.34;5020774;28;20134;-77
2022/02/12 00:23:01;;;;;;;29.33;13.00;;;;;;;15.33;59.18;101125.59;5020459;28;20045;-78
2022/02/12 00:25:28;;;;;;;25.60;12.70;;;;;;;15.46;58.90;101146.56;5023696;28;20129;-77
2022/02/12 00:27:55;;;;;;;29.67;11.67;;;;;;;15.46;59.08;101151.34;5014572;28;20159;-75
2022/02/12 00:30:21;;;;;;;31.83;12.53;;;;;;;15.43;58.88;101140.69;5021677;28;20145;-77
2022/02/12 00:32:48;;;;;;;24.20;12.03;;;;;;;15.38;59.12;101136.81;5012526;28;20099;-74
2022/02/12 00:35:15;;;;;;;29.93;11.40;;;;;;;15.46;59.12;101148.53;5021983;28;20137;-72
2022/02/12 00:37:43;;;;;;;25.90;11.63;;;;;;;15.46;59.11;101140.09;5013961;28;20073;-73
2022/02/12 00:40:11;;;;;;;22.47;12.80;;;;;;;15.39;59.12;101132.84;5016028;28;20164;-73
2022/02/12 00:42:38;;;;;;;23.70;12.50;;;;;;;15.44;58.98;101131.94;5008489;28;20128;-80
2022/02/12 00:45:06;;;;;;;34.63;13.60;;;;;;;15.43;59.03;101130.25;5020137;28;20049;-82
2022/02/12 00:47:34;;;;;;;26.87;13.63;;;;;;;15.41;58.96;101127.72;5021204;28;20081;-83
2022/02/12 00:50:02;;;;;;;29.17;12.53;;;;;;;15.23;59.12;101102.34;5012964;28;20137;-74
2022/02/12 00:52:29;;;;;;;26.30;12.47;;;;;;;15.32;59.34;101126.72;5013124;28;20050;-75
2022/02/12 00:54:56;;;;;;;27.93;13.90;;;;;;;15.30;59.23;101126.19;5015235;28;20120;-73
2022/02/12 00:57:23;;;;;;;23.80;11.93;;;;;;;15.03;59.25;101087.38;5013070;28;20049;-72
2022/02/12 00:59:50;;;;;;;23.13;11.43;;;;;;;14.75;59.44;101043.25;5015076;28;20543;-72
2022/02/12 01:02:17;;;;;;;24.40;12.60;;;;;;;15.14;59.39;101125.53;5047347;28;20148;-74
2022/02/12 01:04:44;;;;;;;23.53;12.17;;;;;;;15.08;59.34;101111.81;5015733;28;22108;-72
2022/02/12 01:07:11;;;;;;;26.93;13.87;;;;;;;15.04;59.47;101117.19;5016575;28;20057;-80
2022/02/12 01:09:41;;;;;;;22.50;12.83;;;;;;;14.99;59.67;101111.59;5017293;28;20049;-80
2022/02/12 01:12:08;;;;;;;31.60;11.27;;;;;;;15.03;59.37;101100.59;5016906;28;20081;-79
2022/02/12 01:14:35;;;;;;;26.17;10.90;;;;;;;15.00;59.47;101098.38;5017225;28;20499;-78
2022/02/12 01:17:02;;;;;;;23.43;10.53;;;;;;;15.05;59.53;101096.34;5030818;28;20142;-79
2022/02/12 01:19:29;;;;;;;22.97;11.77;;;;;;;15.03;59.42;101092.16;5017909;28;20060;-78
2022/02/12 01:21:56;;;;;;;26.63;12.93;;;;;;;14.84;59.74;101081.66;5035463;28;20413;-79
2022/02/12 01:24:23;;;;;;;23.30;11.67;;;;;;;14.85;60.08;101100.22;5022172;28;20080;-79
2022/02/12 01:26:51;;;;;;;24.43;11.23;;;;;;;14.84;59.97;101095.72;5019163;28;20841;-79
2022/02/12 01:29:18;;;;;;;32.17;13.27;;;;;;;14.75;60.21;101086.25;5019226;28;20150;-79
2022/02/12 01:31:45;;;;;;;22.83;11.57;;;;;;;14.71;60.14;101084.34;5023334;28;20088;-81
2022/02/12 01:34:12;;;;;;;26.40;12.07;;;;;;;14.57;60.50;101073.78;5017797;28;20081;-80
2022/02/12 01:36:38;;;;;;;30.83;13.30;;;;;;;14.49;61.06;101077.16;5026198;28;20049;-78
2022/02/12 01:39:06;;;;;;;26.90;13.37;;;;;;;14.40;61.31;101079.78;5030910;28;20172;-79
2022/02/12 01:41:33;;;;;;;29.93;14.37;;;;;;;14.35;61.66;101060.13;5015823;28;20132;-79
2022/02/12 01:44:07;;;;;;;29.40;15.17;;;;;;;14.17;61.78;101041.19;5017233;28;20144;-82
2022/02/12 01:46:35;;;;;;;37.40;13.63;;;;;;;14.23;61.91;101068.13;5016139;28;20053;-81
2022/02/12 01:49:02;;;;;;;32.73;14.87;;;;;;;14.34;61.29;101069.72;5038715;28;20077;-81
2022/02/12 01:51:29;;;;;;;38.27;15.90;;;;;;;14.37;61.11;101062.66;5016281;28;20149;-81
2022/02/12 01:53:56;;;;;;;36.47;18.57;;;;;;;14.46;60.95;101073.00;5022259;28;20512;-81
2022/02/12 01:56:23;;;;;;;35.43;17.30;;;;;;;14.52;60.87;101085.03;5018287;28;20065;-81
2022/02/12 01:58:50;;;;;;;38.70;16.67;;;;;;;14.59;60.81;101081.88;5026019;28;20129;-79
2022/02/12 02:01:17;;;;;;;28.63;14.13;;;;;;;14.33;60.69;101047.53;5018036;28;20141;-77
2022/02/12 02:03:44;;;;;;;29.63;15.50;;;;;;;14.51;60.73;101080.56;5016184;28;20150;-75
2022/02/12 02:06:12;;;;;;;28.90;14.30;;;;;;;14.53;60.59;101069.88;5019418;28;20662;-77
2022/02/12 02:08:40;;;;;;;24.87;14.70;;;;;;;14.50;60.28;101055.53;5015595;28;20057;-78
2022/02/12 02:11:07;;;;;;;32.13;16.53;;;;;;;14.61;60.22;101074.84;5021901;28;20084;-79
2022/02/12 02:13:34;;;;;;;31.73;16.00;;;;;;;14.61;60.30;101066.41;5019703;28;20488;-78
2022/02/12 02:16:08;;;;;;;33.47;16.17;;;;;;;14.51;60.06;101055.28;5020194;28;20125;-82
2022/02/12 02:18:35;;;;;;;38.07;18.17;;;;;;;14.62;60.12;101070.06;5016955;28;20156;-82
2022/02/12 02:21:06;;;;;;;43.57;17.53;;;;;;;14.57;60.00;101062.53;5014546;28;20148;-76
2022/02/12 02:23:42;;;;;;;35.43;17.73;;;;;;;14.59;59.96;101062.22;5019312;28;20108;-81
2022/02/12 02:26:09;;;;;;;46.70;20.23;;;;;;;14.48;59.85;101050.19;5017623;28;20109;-77
2022/02/12 02:28:36;;;;;;;47.60;20.23;;;;;;;14.58;59.78;101054.94;5015000;28;20066;-78
2022/02/12 02:31:03;;;;;;;41.20;19.83;;;;;;;14.59;59.58;101062.22;5017671;28;20128;-84
2022/02/12 02:33:30;;;;;;;38.63;19.77;;;;;;;14.57;59.60;101072.94;5023228;28;20051;-81
2022/02/12 02:35:57;;;;;;;36.90;18.07;;;;;;;14.54;59.51;101062.28;5022709;28;20050;-81
2022/02/12 02:38:24;;;;;;;43.90;19.20;;;;;;;14.44;59.73;101037.88;5014266;28;20144;-81
2022/02/12 02:40:54;;;;;;;44.67;19.63;;;;;;;14.48;60.00;101049.38;5037187;28;20053;-78
2022/02/12 02:43:22;;;;;;;;;;;;;;;14.39;59.57;101041.59;5042760;28;20056;-83
2022/02/12 02:45:49;;;;;;;39.03;19.37;;;;;;;14.53;59.68;101049.34;5043180;28;19952;-81
2022/02/12 02:48:16;;;;;;;38.47;19.27;;;;;;;14.55;59.75;101044.28;5050010;28;20041;-79
2022/02/12 02:56:17;;;;;;;36.00;17.83;;;;;;;14.51;59.85;101046.00;5022469;28;20133;-82
2022/02/12 02:58:47;;;;;;;34.73;17.13;;;;;;;14.51;59.95;101035.59;5024724;28;20196;-81
2022/02/12 03:01:19;;;;;;;34.33;17.83;;;;;;;14.53;60.08;101038.09;5017211;28;20536;-81
2022/02/12 03:03:48;;;;;;;38.17;17.67;;;;;;;14.53;60.41;101035.28;5025283;28;20136;-82
2022/02/12 03:06:16;;;;;;;35.57;16.60;;;;;;;14.53;60.35;101038.09;5016776;28;20076;-81
2022/02/12 03:08:44;;;;;;;32.80;17.73;;;;;;;14.37;60.41;101001.69;5020501;28;20137;-80
2022/02/12 03:11:13;;;;;;;45.07;18.43;;;;;;;14.65;60.45;101042.19;5021369;28;20474;-77
2022/02/12 03:13:41;;;;;;;30.07;17.33;;;;;;;14.66;60.64;101035.44;5016526;28;20050;-78
2022/02/12 03:16:09;;;;;;;34.77;16.50;;;;;;;14.53;60.72;100998.75;5015630;28;20475;-79
2022/02/12 03:18:40;;;;;;;30.63;16.07;;;;;;;14.76;60.37;101037.31;5043270;28;20037;-83
2022/02/12 03:21:08;;;;;;;32.43;16.07;;;;;;;14.77;60.47;101030.56;5042528;28;20036;-78
2022/02/12 03:23:36;;;;;;;35.47;17.23;;;;;;;14.53;60.51;100982.75;5040202;28;20041;-77
2022/02/12 03:26:03;;;;;;;35.83;16.23;;;;;;;14.50;60.38;100988.09;5038855;28;20041;-71
2022/02/12 03:28:30;;;;;;;32.97;17.90;;;;;;;14.82;60.66;101036.13;5053686;28;20052;-78
2022/02/12 03:30:57;;;;;;;37.63;16.83;;;;;;;14.84;60.69;101033.88;5053096;28;20033;-77
2022/02/12 03:33:24;;;;;;;38.00;16.97;;;;;;;14.73;60.68;101004.16;5045654;28;20065;-75
2022/02/12 03:35:53;;;;;;;31.33;14.33;;;;;;;14.89;60.37;101022.56;5060823;28;20034;-75
2022/02/12 03:38:26;;;;;;;29.30;14.83;;;;;;;14.90;60.53;101015.78;5031234;28;20095;-83
2022/02/12 03:41:00;;;;;;;31.27;14.87;;;;;;;14.87;60.49;101001.47;5027206;28;20119;-78
2022/02/12 03:43:30;;;;;;;28.47;15.77;;;;;;;15.00;60.74;101020.44;5016493;28;20062;-75
2022/02/12 03:45:57;;;;;;;34.73;15.93;;;;;;;14.91;60.85;101000.59;5018143;28;20080;-78
2022/02/12 03:48:26;;;;;;;23.83;13.53;;;;;;;15.04;60.70;101015.06;5021667;28;20092;-74
2022/02/12 03:50:54;;;;;;;29.83;13.37;;;;;;;15.06;60.86;101024.88;5023508;28;20135;-75
2022/02/12 03:53:21;;;;;;;28.30;13.57;;;;;;;15.11;60.77;101022.03;5052552;28;20132;-75
2022/02/12 03:55:48;;;;;;;25.93;13.70;;;;;;;15.18;60.73;101021.66;5016191;28;20133;-75
2022/02/12 03:58:19;;;;;;;28.85;12.93;;;;;;;15.23;60.64;101013.16;5017061;28;20054;-73
2022/02/12 04:00:47;;;;;;;28.63;11.40;;;;;;;15.31;60.56;101008.81;5013727;28;20069;-80
2022/02/12 04:03:15;;;;;;;26.30;12.50;;;;;;;15.38;60.56;101007.34;5021942;28;20497;-73
2022/02/12 04:05:45;;;;;;;20.37;11.93;;;;;;;15.43;60.37;101012.06;5016440;28;20061;-73
2022/02/12 04:08:13;;;;;;;;;;;;;;;15.35;60.26;101015.53;5017377;28;20777;-73
2022/02/12 04:10:40;;;;;;;24.87;9.17;;;;;;;15.23;60.12;100982.19;5015959;28;19971;-73
2022/02/12 04:13:07;;;;;;;27.53;11.60;;;;;;;15.41;60.19;100998.28;5017392;28;20085;-73
2022/02/12 04:15:34;;;;;;;20.17;8.80;;;;;;;15.47;60.24;101003.84;5013964;28;20172;-73
2022/02/12 04:18:01;;;;;;;23.03;9.40;;;;;;;15.56;60.39;101018.94;5017514;28;20132;-73
2022/02/12 04:20:28;;;;;;;27.17;11.30;;;;;;;15.59;60.00;101009.88;5020146;28;20089;-72
2022/02/12 04:22:55;;;;;;;21.87;10.33;;;;;;;15.50;60.02;100983.53;5014852;28;20133;-75
2022/02/12 04:25:23;;;;;;;20.73;9.87;;;;;;;15.26;60.25;100947.84;5014673;28;20496;-76
2022/02/12 04:27:50;;;;;;;30.07;8.70;;;;;;;15.60;60.12;101005.91;5015628;28;20421;-73
2022/02/12 04:30:18;;;;;;;21.17;7.10;;;;;;;15.54;60.08;101007.13;5018143;28;20221;-74
2022/02/12 04:32:45;;;;;;;30.53;11.67;;;;;;;15.34;60.31;100997.81;5028477;28;20132;-73
2022/02/12 04:35:15;;;;;;;22.57;11.53;;;;;;;15.17;60.76;101003.09;5015459;28;20081;-72
2022/02/12 04:37:43;;;;;;;23.77;12.50;;;;;;;14.86;60.49;100980.13;5024357;28;20124;-73
2022/02/12 04:40:11;;;;;;;25.03;12.43;;;;;;;15.05;60.45;101003.53;5023569;28;20493;-73
2022/02/12 04:42:38;;;;;;;33.27;14.23;;;;;;;15.03;60.43;101013.41;5021782;28;20104;-72
2022/02/12 04:45:05;;;;;;;31.20;14.60;;;;;;;14.89;60.49;101014.13;5019679;28;20133;-73
2022/02/12 04:47:32;;;;;;;25.33;13.50;;;;;;;14.75;60.79;101010.34;5017391;28;20140;-72
2022/02/12 04:49:59;;;;;;;32.20;14.37;;;;;;;14.65;60.92;101013.25;5019051;28;20055;-72
2022/02/12 04:52:26;;;;;;;36.93;15.87;;;;;;;14.72;60.68;101007.28;5017267;28;20467;-73
2022/02/12 04:54:53;;;;;;;35.03;15.67;;;;;;;14.33;60.77;100955.66;5024143;28;20540;-76
2022/02/12 04:57:20;;;;;;;33.23;14.13;;;;;;;14.52;61.06;100991.47;5021960;28;20457;-82
2022/02/12 04:59:47;;;;;;;27.43;14.07;;;;;;;14.60;61.01;101011.34;5022989;28;20136;-80
2022/02/12 05:02:13;;;;;;;30.23;14.30;;;;;;;14.58;61.00;101012.78;5017644;28;20133;-79
2022/02/12 05:04:40;;;;;;;26.97;12.73;;;;;;;14.33;61.51;101003.41;5021739;28;20144;-83
2022/02/12 05:07:09;;;;;;;27.17;14.60;;;;;;;14.31;62.08;101016.91;5017707;28;20128;-72
2022/02/12 05:09:38;;;;;;;30.00;14.70;;;;;;;14.23;62.37;101018.38;5016968;28;20504;-74
2022/02/12 05:12:06;;;;;;;30.97;15.10;;;;;;;14.32;61.98;101009.31;5032865;28;20106;-72
2022/02/12 05:14:34;;;;;;;32.47;16.77;;;;;;;14.03;62.01;100955.94;5063590;28;20057;-70
2022/02/12 05:17:01;;;;;;;36.60;15.00;;;;;;;14.29;62.10;100998.66;5026314;28;20080;-70
2022/02/12 05:19:28;;;;;;;33.77;16.00;;;;;;;14.29;62.28;101005.16;5020013;28;20064;-70
2022/02/12 05:21:55;;;;;;;35.47;14.87;;;;;;;14.34;62.00;101007.06;5024438;28;20084;-71
2022/02/12 05:24:23;;;;;;;37.87;15.17;;;;;;;14.37;61.86;101006.47;5015470;28;20041;-77
2022/02/12 05:26:49;;;;;;;34.43;15.50;;;;;;;14.23;61.72;100984.69;5020976;28;20132;-74
2022/02/12 05:29:16;;;;;;;32.30;15.30;;;;;;;14.26;61.93;100994.50;5017023;28;20511;-76
2022/02/12 05:31:43;;;;;;;34.83;16.37;;;;;;;14.31;61.76;100985.19;5017305;28;20080;-77
2022/02/12 05:34:16;;;;;;;41.27;16.60;;;;;;;14.45;61.71;100998.22;5020953;28;20054;-79
2022/02/12 05:36:44;;;;;;;27.97;16.63;;;;;;;14.49;61.43;101008.88;5017622;28;20560;-74
2022/02/12 05:39:11;;;;;;;32.20;15.63;;;;;;;14.38;61.46;100994.94;5022759;28;20076;-72
2022/02/12 05:41:39;;;;;;;34.30;16.17;;;;;;;14.37;61.81;101009.28;5016491;28;20148;-71
2022/02/12 05:44:06;;;;;;;38.93;16.53;;;;;;;14.31;61.98;101007.66;5019489;28;20132;-72
2022/02/12 05:46:34;;;;;;;30.77;15.00;;;;;;;14.24;62.06;101008.00;5014648;28;20473;-72
2022/02/12 05:49:02;;;;;;;28.20;14.13;;;;;;;14.16;62.39;101012.28;5053257;28;21593;-74
2022/02/12 05:51:32;;;;;;;34.20;15.93;;;;;;;13.91;62.79;100982.44;5014936;28;20140;-75
2022/02/12 05:54:03;;;;;;;41.10;16.45;;;;;;;13.80;63.07;100983.63;5033629;28;20049;-74
2022/02/12 05:56:31;;;;;;;32.10;15.17;;;;;;;13.83;63.36;101008.31;5013919;28;20129;-73
2022/02/12 05:58:59;;;;;;;38.90;16.17;;;;;;;13.82;63.41;101011.41;5019849;28;20781;-73
2022/02/12 06:01:26;;;;;;;33.43;16.67;;;;;;;13.88;62.80;100999.84;5015385;28;20133;-76
2022/02/12 06:03:53;;;;;;;32.53;16.03;;;;;;;14.02;62.54;101013.22;5015763;28;20136;-73
2022/02/12 06:06:20;;;;;;;31.93;16.90;;;;;;;14.01;62.78;101005.94;5025353;28;20081;-77
2022/02/12 06:08:47;;;;;;;32.40;16.33;;;;;;;13.98;62.46;100999.78;5022301;28;20078;-73
2022/02/12 06:11:14;;;;;;;43.73;17.27;;;;;;;14.05;62.38;101018.25;5018762;28;20128;-78
2022/02/12 06:13:41;;;;;;;23.83;14.13;;;;;;;13.77;63.11;100997.41;5023869;28;20046;-78
2022/02/12 06:16:08;;;;;;;28.13;12.60;;;;;;;13.79;63.21;101012.00;5020423;28;20156;-71
2022/02/12 06:18:35;;;;;;;19.53;10.13;;;;;;;13.58;63.93;101022.50;5015083;28;20661;-73
2022/02/12 06:21:06;;;;;;;26.67;13.20;;;;;;;13.51;64.03;101020.84;5017121;28;20045;-74
2022/02/12 06:23:37;;;;;;;26.73;14.17;;;;;;;13.18;64.83;100996.31;5020727;28;20053;-77
2022/02/12 06:26:05;;;;;;;32.92;15.07;;;;;;;13.30;65.10;101022.09;5018194;28;20129;-78
2022/02/12 06:28:32;;;;;;;24.63;11.47;;;;;;;13.27;65.08;101026.31;5048499;28;20133;-77
2022/02/12 06:31:01;;;;;;;29.90;15.03;;;;;;;13.28;65.12;101025.16;5014678;28;20529;-79
2022/02/12 06:33:31;;;;;;;30.20;14.80;;;;;;;13.13;65.14;100996.31;5023677;28;20065;-76
2022/02/12 06:35:59;;;;;;;33.10;16.57;;;;;;;13.37;64.95;101025.44;5017023;28;20297;-72
2022/02/12 06:38:27;;;;;;;28.67;15.00;;;;;;;13.41;64.73;101029.31;5015970;28;20054;-72
2022/02/12 06:40:54;;;;;;;31.97;14.30;;;;;;;13.48;64.61;101029.00;5022831;28;20049;-73
2022/02/12 06:43:20;;;;;;;34.27;15.47;;;;;;;13.41;64.99;101032.13;5013152;28;20137;-78
2022/02/12 06:45:49;;;;;;;23.70;12.93;;;;;;;13.43;64.87;101026.22;5017673;28;20140;-79
2022/02/12 06:48:18;;;;;;;24.83;12.30;;;;;;;13.40;64.99;101027.66;5015564;28;20477;-80
2022/02/12 06:50:47;;;;;;;40.80;14.33;;;;;;;13.36;65.15;101032.13;5017238;28;21494;-78
2022/02/12 06:53:14;;;;;;;27.10;14.10;;;;;;;13.29;65.16;101023.19;5019006;28;20144;-82
2022/02/12 06:55:41;;;;;;;38.80;17.70;;;;;;;13.38;65.26;101040.28;5022546;28;20144;-75
2022/02/12 06:58:08;;;;;;;28.07;14.90;;;;;;;13.45;64.72;101032.41;5014493;28;20137;-78
2022/02/12 07:00:35;;;;;;;29.87;14.07;;;;;;;13.35;65.35;101024.84;5014316;28;20651;-76
2022/02/12 07:03:02;;;;;;;27.07;13.13;;;;;;;13.42;64.98;101042.22;5018399;28;20457;-88
2022/02/12 07:05:29;;;;;;;29.43;15.20;;;;;;;13.14;65.02;101001.66;5049594;28;20108;-76
2022/02/12 07:07:56;;;;;;;41.27;15.87;;;;;;;13.36;65.20;101042.53;5013986;28;20050;-76
2022/02/12 07:10:23;;;;;;;35.10;16.07;;;;;;;13.24;65.40;101023.25;5022398;28;20128;-79
2022/02/12 07:12:50;;;;;;;39.93;14.40;;;;;;;13.40;65.56;101054.84;5019860;28;20765;-74
2022/02/12 07:15:17;;;;;;;37.20;16.80;;;;;;;13.40;65.55;101058.50;5012248;28;20163;-79
2022/02/12 07:17:44;;;;;;;32.37;16.07;;;;;;;13.43;65.44;101054.28;5013103;28;20069;-75
2022/02/12 07:20:12;;;;;;;28.50;13.37;;;;;;;13.43;65.52;101057.91;5019138;28;20505;-78
2022/02/12 07:22:41;;;;;;;33.87;15.27;;;;;;;13.54;65.28;101060.66;5016537;28;20496;-80
2022/02/12 07:25:11;;;;;;;34.58;15.65;;;;;;;13.50;65.29;101050.06;5015809;28;20054;-72
2022/02/12 07:27:39;;;;;;;32.93;14.30;;;;;;;13.50;65.48;101061.28;5018154;28;20041;-72
2022/02/12 07:30:08;;;;;;;35.10;15.60;;;;;;;13.55;65.48;101063.22;5047808;28;20129;-72
2022/02/12 07:32:39;;;;;;;35.92;15.77;;;;;;;13.55;65.28;101056.75;5022596;28;20081;-73
2022/02/12 07:35:10;;;;;;;30.97;14.83;;;;;;;13.49;65.25;101048.34;5025290;28;20084;-74
2022/02/12 07:37:40;;;;;;;;;;;;;;;13.48;66.08;101069.13;5014723;28;20129;-70
2022/02/12 07:40:08;;;;;;;26.27;14.67;;;;;;;13.45;66.08;101068.88;5021803;28;20004;-70
2022/02/12 07:42:37;;;;;;;33.13;18.20;;;;;;;13.45;65.96;101069.69;5011293;28;20133;-72
2022/02/12 07:45:05;;;;;;;27.77;14.07;;;;;;;13.41;65.81;101064.97;5035000;28;20053;-73
2022/02/12 07:47:32;;;;;;;26.00;12.97;;;;;;;13.55;65.72;101079.22;5043640;28;20029;-73
2022/02/12 07:49:59;;;;;;;31.30;15.23;;;;;;;13.55;65.71;101080.03;5019694;28;20175;-72
2022/02/12 07:52:25;;;;;;;38.10;16.57;;;;;;;13.56;65.80;101080.88;5018426;28;20141;-73
2022/02/12 07:54:52;;;;;;;33.87;16.60;;;;;;;13.60;65.72;101081.97;5013509;28;20077;-72
2022/02/12 07:57:19;;;;;;;42.10;17.50;;;;;;;13.56;65.69;101080.88;5015542;28;20133;-72
2022/02/12 07:59:48;;;;;;;31.07;17.07;;;;;;;13.52;65.62;101070.22;5016853;28;20140;-73
2022/02/12 08:02:16;;;;;;;39.90;17.97;;;;;;;13.84;64.98;101090.56;5010925;28;20049;-72
2022/02/12 08:04:43;;;;;;;39.23;18.27;;;;;;;13.76;64.87;101083.59;5015357;28;20133;-72
2022/02/12 08:07:29;;;;;;;33.10;16.57;;;;;;;13.86;64.73;101097.56;5011953;28;20052;-73
2022/02/12 08:13:03;;;;;;;43.03;18.17;;;;;;;14.00;64.29;101103.38;5023623;28;20081;-73
2022/02/12 08:15:35;;;;;;;39.77;17.80;;;;;;;14.08;64.26;101113.16;5014913;28;20394;-73
2022/02/12 08:18:02;;;;;;;37.60;18.23;;;;;;;14.13;64.37;101113.13;5011005;28;20050;-73
2022/02/12 08:20:29;;;;;;;36.57;18.53;;;;;;;13.75;64.19;101040.66;5013124;28;20145;-72
2022/02/12 08:22:56;;;;;;;42.93;17.73;;;;;;;14.39;64.15;101128.69;5017382;28;20084;-73
2022/02/12 08:25:22;;;;;;;48.87;17.80;;;;;;;14.35;63.86;101110.72;5018720;28;20053;-72
2022/02/12 08:27:49;;;;;;;30.17;15.50;;;;;;;14.38;63.60;101107.31;5032937;28;20176;-73
2022/02/12 08:30:18;;;;;;;44.47;19.03;;;;;;;14.32;63.76;101102.88;5014932;28;20469;-73
2022/02/12 08:32:45;;;;;;;40.30;16.37;;;;;;;14.52;63.74;101130.00;5015204;28;20202;-72
2022/02/12 08:35:14;;;;;;;42.73;17.80;;;;;;;14.52;63.69;101131.97;5014070;28;20521;-73
2022/02/12 08:37:43;;;;;;;43.80;17.73;;;;;;;14.49;63.64;101129.72;5021350;28;20056;-73
2022/02/12 08:40:22;;;;;;;44.27;19.63;;;;;;;14.40;63.77;101119.13;5012462;28;20053;-75
2022/02/12 08:42:50;;;;;;;42.63;18.37;;;;;;;14.37;63.50;101108.47;5015853;28;20054;-73
2022/02/12 08:45:17;;;;;;;42.00;17.00;;;;;;;14.54;63.41;101129.72;5016630;28;20053;-73
2022/02/12 08:47:45;;;;;;;37.57;17.27;;;;;;;14.58;63.43;101136.44;5015426;28;20112;-73
2022/02/12 08:50:12;;;;;;;36.23;17.23;;;;;;;14.46;63.44;101126.38;5009852;28;20073;-73
2022/02/12 08:52:40;;;;;;;43.83;17.70;;;;;;;14.48;63.44;101131.69;5013414;28;20668;-72
2022/02/12 08:55:09;;;;;;;40.83;18.17;;;;;;;14.49;63.67;101126.91;5011637;28;20050;-72
2022/02/12 08:57:36;;;;;;;38.63;15.97;;;;;;;14.52;63.51;101135.63;5014204;28;20534;-70
2022/02/12 09:00:09;;;;;;;38.27;16.70;;;;;;;14.56;63.42;101130.25;5016345;28;20465;-72
2022/02/12 09:02:56;;;;;;;44.80;14.77;;;;;;;14.61;63.15;101136.69;5020077;28;20075;-68
2022/02/12 09:05:23;;;;;;;38.03;15.73;;;;;;;14.63;63.27;101133.56;5016056;28;20144;-71
2022/02/12 09:07:50;;;;;;;44.83;17.20;;;;;;;14.61;63.39;101130.22;5019755;28;20587;-71
2022/02/12 09:10:17;;;;;;;39.37;16.47;;;;;;;14.71;63.37;101147.00;5016065;28;20053;-71
2022/02/12 09:12:44;;;;;;;42.60;17.73;;;;;;;14.78;63.34;101147.50;5014187;28;20504;-73
2022/02/12 09:15:11;;;;;;;32.50;15.47;;;;;;;14.83;63.06;101152.25;5015301;28;20069;-72
2022/02/12 09:17:38;;;;;;;39.00;16.23;;;;;;;14.91;63.06;101151.63;5024859;28;20501;-73
2022/02/12 09:20:05;;;;;;;39.47;15.07;;;;;;;14.94;62.82;101151.03;5017503;28;20085;-71
2022/02/12 09:22:32;;;;;;;43.03;16.83;;;;;;;14.98;62.77;101156.91;5015586;28;20140;-69
2022/02/12 09:24:59;;;;;;;34.53;16.23;;;;;;;14.87;62.74;101133.63;5013040;28;20136;-68
2022/02/12 09:27:26;;;;;;;42.20;15.83;;;;;;;15.11;62.66;101161.81;5015854;28;20073;-69
2022/02/12 09:29:54;;;;;;;39.47;17.33;;;;;;;15.14;62.59;101164.03;5016406;28;20060;-68
2022/02/12 09:32:21;;;;;;;37.07;16.93;;;;;;;15.05;62.73;101152.59;5008737;28;20065;-69
2022/02/12 09:34:48;;;;;;;45.00;16.37;;;;;;;15.17;62.69;101164.28;5017951;28;20125;-69
2022/02/12 09:37:15;;;;;;;42.47;17.57;;;;;;;15.22;62.53;101157.78;5009662;28;20074;-70
2022/02/12 09:39:42;;;;;;;45.57;18.13;;;;;;;15.30;62.26;101154.31;5013019;28;20054;-68
2022/02/12 09:42:10;;;;;;;44.73;16.87;;;;;;;15.37;62.29;101157.63;5016040;28;20519;-69
2022/02/12 09:44:41;;;;;;;47.47;19.77;;;;;;;15.41;61.95;101161.50;5017486;28;20041;-70
2022/02/12 09:47:45;;;;;;;47.70;17.17;;;;;;;15.38;61.97;101164.94;5013115;28;20805;-68
2022/02/12 09:50:13;;;;;;;52.17;16.57;;;;;;;15.44;62.02;101164.88;5016028;28;20124;-69
2022/02/12 09:52:45;;;;;;;39.63;16.97;;;;;;;15.52;62.18;101162.25;5020994;28;20058;-70
2022/02/12 09:55:13;;;;;;;54.30;17.53;;;;;;;15.68;61.73;101164.91;5022517;28;20091;-70
2022/02/12 09:57:40;;;;;;;39.00;16.93;;;;;;;15.83;61.43;101171.19;5032191;28;20455;-70
2022/02/12 10:00:10;;;;;;;38.90;15.00;;;;;;;15.88;61.55;101162.66;5023417;28;20081;-70
2022/02/12 10:02:37;;;;;;;24.50;12.43;;;;;;;15.99;61.05;101165.34;5015902;28;20096;-70
2022/02/12 10:05:29;;;;;;;30.83;11.87;;;;;;;16.04;61.33;101168.13;5022564;28;20090;-69
2022/02/12 10:08:02;;;;;;;26.03;11.47;;;;;;;16.07;60.92;101167.50;5024188;28;20046;-70
2022/02/12 10:10:35;;;;;;;28.87;12.13;;;;;;;16.08;61.18;101158.75;5034025;28;20084;-71
2022/02/12 10:13:15;;;;;;;36.30;12.55;;;;;;;16.02;60.69;101147.84;5019867;28;20061;-70
2022/02/12 10:15:45;;;;;;;25.55;12.45;;;;;;;16.25;60.55;101175.13;5044604;28;20069;-70
2022/02/12 10:18:13;;;;;;;23.15;10.20;;;;;;;16.20;60.58;101169.56;5045351;28;20036;-70
2022/02/12 10:20:42;;;;;;;30.30;12.98;;;;;;;16.22;60.74;101180.53;5029112;28;20053;-71
2022/02/12 10:23:13;;;;;;;26.05;12.25;;;;;;;16.25;60.73;101180.78;5021435;28;20139;-71
2022/02/12 10:25:43;;;;;;;23.93;12.07;;;;;;;16.35;60.66;101185.44;5022332;28;20046;-71
2022/02/12 10:28:12;;;;;;;28.75;11.20;;;;;;;16.13;60.14;101115.56;5021743;28;20144;-70
2022/02/12 10:30:40;;;;;;;25.33;11.37;;;;;;;16.42;60.43;101140.78;5022992;28;20128;-70
2022/02/12 10:33:08;;;;;;;22.85;11.25;;;;;;;16.77;60.08;101156.31;5027413;28;20136;-71
2022/02/12 10:35:36;;;;;;;24.40;10.50;;;;;;;16.87;59.46;101158.13;5015372;28;20097;-72
2022/02/12 10:38:10;;;;;;;22.40;9.10;;;;;;;17.13;59.32;101175.44;5039646;28;20073;-71
2022/02/12 10:40:38;;;;;;;19.75;8.00;;;;;;;17.24;58.94;101162.00;5052498;28;20054;-71
2022/02/12 10:43:06;;;;;;;24.40;8.18;;;;;;;17.91;58.96;101170.00;5020120;28;20057;-71
2022/02/12 10:45:35;;;;;;;17.58;6.88;;;;;;;18.73;57.84;101163.31;5018792;28;20173;-70
2022/02/12 10:48:03;;;;;;;13.30;6.80;;;;;;;19.31;57.16;101178.53;5019535;28;20078;-70
2022/02/12 10:50:32;;;;;;;17.02;6.90;;;;;;;19.52;56.56;101173.16;5026423;28;20065;-70
2022/02/12 10:53:02;;;;;;;11.57;6.90;;;;;;;19.39;56.13;101164.44;5018927;28;20053;-70
2022/02/12 10:55:39;;;;;;;;;;;;;;;19.07;57.24;101170.41;5021639;28;20050;-71
2022/02/12 10:58:12;;;;;;;14.23;6.05;;;;;;;18.93;56.42;101170.47;5022453;28;20023;-71
2022/02/12 11:00:41;;;;;;;13.88;5.28;;;;;;;18.92;56.20;101166.81;5024108;28;20093;-71
2022/02/12 11:03:12;;;;;;;10.50;6.10;;;;;;;19.17;55.58;101159.63;5022164;28;20064;-71
2022/02/12 11:05:41;;;;;;;12.85;5.60;;;;;;;19.72;55.15;101166.94;5019557;28;20503;-71
2022/02/12 11:08:09;;;;;;;11.85;5.38;;;;;;;20.68;54.26;101155.78;5018616;28;20073;-72
2022/02/12 11:10:38;;;;;;;14.70;5.07;;;;;;;21.59;52.76;101142.41;5019639;28;20080;-73
2022/02/12 11:13:07;;;;;;;10.50;5.53;;;;;;;22.58;51.25;101156.22;5019283;28;20088;-72
2022/02/12 11:15:35;;;;;;;16.42;5.53;;;;;;;23.13;50.03;101155.06;5024855;28;20140;-70
2022/02/12 11:18:11;;;;;;;8.45;4.68;;;;;;;23.06;48.63;101132.00;5021736;28;20049;-72
2022/02/12 11:20:40;;;;;;;8.13;4.22;;;;;;;23.40;48.09;101153.59;5022984;28;20420;-72
2022/02/12 11:23:33;;;;;;;11.52;4.93;;;;;;;23.23;48.43;101154.63;5033119;28;20053;-71
2022/02/12 11:26:03;;;;;;;12.65;3.92;;;;;;;22.99;47.05;101154.53;5035964;28;20092;-72